Time;durP1;ratioP1;P1;durP2;ratioP2;P2;SDS_P1;SDS_P2;PMS_P1;PMS_P2;Temp;Humidity;BMP_temperature;BMP_pressure;BME280_temperature;BME280_humidity;BME280_pressure;Samples;Min_cycle;Max_cycle;Signal;HPM_P1;HPM_P2
2022/10/30 00:02:14;;;;;;;7.07;4.47;;;;;;;11.19;79.82;98225.66;6100983;23;20024;-79
2022/10/30 00:04:40;;;;;;;6.97;5.03;;;;;;;11.15;79.87;98210.13;6126299;23;20084;-78
2022/10/30 00:07:06;;;;;;;7.20;4.93;;;;;;;11.26;79.56;98219.31;6100078;23;20435;-78
2022/10/30 00:09:32;;;;;;;7.68;4.70;;;;;;;11.22;79.67;98210.78;6125717;23;20018;-78
2022/10/30 00:11:58;;;;;;;5.68;4.03;;;;;;;11.28;79.35;98204.50;6127178;23;20017;-78
2022/10/30 00:14:24;;;;;;;6.88;4.03;;;;;;;11.32;79.57;98218.25;6130366;23;20017;-80
2022/10/30 00:16:49;;;;;;;5.70;3.80;;;;;;;11.23;79.39;98198.59;6106087;23;20021;-76
2022/10/30 00:19:15;;;;;;;6.15;4.05;;;;;;;11.29;79.39;98199.22;6099025;23;20037;-80
2022/10/30 00:21:41;;;;;;;6.78;3.80;;;;;;;11.36;79.39;98204.19;6099372;23;20021;-78
2022/10/30 00:24:07;;;;;;;4.65;3.40;;;;;;;11.35;79.72;98199.91;6099770;23;20018;-77
2022/10/30 00:26:33;;;;;;;5.03;3.55;;;;;;;11.44;79.50;98213.41;6100254;23;20022;-81
2022/10/30 00:29:01;;;;;;;5.10;4.03;;;;;;;11.48;79.32;98195.06;6075908;23;20014;-79
2022/10/30 00:31:27;;;;;;;7.88;4.20;;;;;;;11.57;79.13;98199.94;6075692;23;20018;-78
2022/10/30 00:33:54;;;;;;;5.70;4.40;;;;;;;11.51;79.18;98181.94;6075450;23;20109;-77
2022/10/30 00:36:22;;;;;;;6.35;4.00;;;;;;;11.55;78.89;98175.72;6100860;23;20049;-78
2022/10/30 00:38:49;;;;;;;7.13;4.00;;;;;;;11.68;79.13;98189.13;6099068;23;20025;-78
2022/10/30 00:41:17;;;;;;;5.70;3.80;;;;;;;11.68;78.78;98187.34;6124578;23;20017;-78
2022/10/30 00:43:43;;;;;;;6.18;4.22;;;;;;;11.62;78.47;98178.91;6100265;23;20024;-78
2022/10/30 00:46:12;;;;;;;6.20;4.10;;;;;;;11.68;78.52;98197.75;6076182;23;20112;-78
2022/10/30 00:48:39;;;;;;;7.28;4.00;;;;;;;11.53;78.47;98162.72;6100531;23;20024;-78
2022/10/30 00:51:09;;;;;;;8.00;4.13;;;;;;;11.72;78.79;98183.72;6126193;23;20069;-79
2022/10/30 00:53:36;;;;;;;9.55;4.22;;;;;;;11.70;78.92;98167.28;6100286;23;20045;-78
2022/10/30 00:56:06;;;;;;;8.02;4.70;;;;;;;11.78;78.53;98177.41;6077347;23;20026;-79
2022/10/30 00:58:37;;;;;;;10.27;4.57;;;;;;;11.73;78.40;98164.56;6078547;23;20045;-77
2022/10/30 01:01:08;;;;;;;7.65;5.18;;;;;;;11.69;78.16;98155.16;6129034;23;20447;-78
2022/10/30 01:03:36;;;;;;;7.47;4.80;;;;;;;11.69;78.22;98165.59;6103039;23;20017;-78
2022/10/30 01:06:06;;;;;;;7.70;4.72;;;;;;;11.68;78.27;98165.66;6076053;23;20423;-78
2022/10/30 01:08:33;;;;;;;6.18;4.32;;;;;;;11.59;78.40;98149.47;6076057;23;20017;-78
2022/10/30 01:11:01;;;;;;;6.47;4.00;;;;;;;11.58;78.08;98139.97;6105771;23;20026;-78
2022/10/30 01:13:28;;;;;;;5.53;3.90;;;;;;;11.70;78.26;98151.66;6079148;23;20241;-79
2022/10/30 01:16:06;;;;;;;6.28;3.65;;;;;;;11.66;78.05;98142.25;6100336;23;20073;-78
2022/10/30 01:18:58;;;;;;;7.70;4.07;;;;;;;11.70;78.07;98154.25;6075404;23;20117;-77
2022/10/30 01:21:27;;;;;;;4.38;3.60;;;;;;;11.69;78.00;98141.31;6125747;23;20028;-77
2022/10/30 01:24:05;;;;;;;5.32;3.65;;;;;;;11.69;78.14;98134.31;6076082;23;20065;-77
2022/10/30 01:27:04;;;;;;;6.05;3.85;;;;;;;11.69;78.09;98138.69;6100476;23;20089;-77
2022/10/30 01:29:41;;;;;;;5.75;4.30;;;;;;;11.58;77.68;98128.72;6052447;23;20359;-78
2022/10/30 01:32:48;;;;;;;5.90;4.00;;;;;;;11.56;77.77;98133.97;6099580;23;20022;-78
2022/10/30 01:35:26;;;;;;;5.88;4.10;;;;;;;11.52;77.73;98129.78;6077468;23;20363;-77
2022/10/30 01:38:04;;;;;;;6.05;4.00;;;;;;;11.42;77.84;98121.47;6103815;23;20029;-77
2022/10/30 01:40:32;;;;;;;5.25;4.18;;;;;;;11.60;78.02;98139.88;6106705;23;20021;-79
2022/10/30 01:42:58;;;;;;;5.32;3.95;;;;;;;11.59;77.85;98123.41;6077875;23;20047;-80
2022/10/30 01:45:59;;;;;;;5.97;4.25;;;;;;;11.72;77.60;98135.94;6101296;23;20021;-79
2022/10/30 01:48:34;;;;;;;5.00;3.90;;;;;;;11.77;77.53;98141.00;6093036;23;20109;-78
2022/10/30 01:51:11;;;;;;;6.20;4.13;;;;;;;11.82;77.39;98141.63;6051944;23;20101;-78
2022/10/30 01:53:51;;;;;;;5.82;4.47;;;;;;;11.87;77.61;98139.69;6099428;23;20018;-78
2022/10/30 01:56:38;;;;;;;6.07;3.95;;;;;;;11.64;77.24;98099.78;6075707;23;20017;-79
2022/10/30 01:59:21;;;;;;;5.88;4.20;;;;;;;11.85;77.37;98118.91;6099654;23;20017;-81
2022/10/30 02:01:48;;;;;;;7.15;4.60;;;;;;;11.84;77.35;98108.53;6075394;23;20022;-79
2022/10/30 02:04:15;;;;;;;5.97;4.18;;;;;;;11.85;77.32;98107.63;6075419;23;20024;-78
2022/10/30 02:06:41;;;;;;;7.30;4.55;;;;;;;11.94;77.12;98115.09;6099431;23;20021;-79
2022/10/30 02:09:08;;;;;;;6.93;4.82;;;;;;;11.82;77.12;98094.72;6075379;23;20054;-78
2022/10/30 02:11:37;;;;;;;6.20;4.60;;;;;;;12.05;77.12;98123.31;6099431;23;20511;-79
2022/10/30 02:14:06;;;;;;;5.97;4.35;;;;;;;12.00;76.85;98106.19;6099686;23;20091;-78
2022/10/30 02:16:40;;;;;;;8.10;4.50;;;;;;;12.17;76.88;98124.56;6099049;23;20104;-79
2022/10/30 02:19:06;;;;;;;6.45;4.28;;;;;;;12.07;76.70;98091.13;6125397;23;20017;-78
2022/10/30 02:21:32;;;;;;;6.15;4.60;;;;;;;11.96;76.74;98074.16;6124285;23;20039;-77
2022/10/30 02:23:58;;;;;;;6.47;4.13;;;;;;;12.25;76.56;98107.78;6134072;23;20017;-78
2022/10/30 02:26:25;;;;;;;5.38;3.90;;;;;;;12.36;76.54;98113.34;6099502;23;20337;-79
2022/10/30 02:28:51;;;;;;;7.35;3.95;;;;;;;12.16;76.47;98077.72;6125288;23;20522;-77
2022/10/30 02:31:18;;;;;;;4.47;3.33;;;;;;;12.39;76.48;98108.00;6099556;23;20069;-77
2022/10/30 02:33:46;;;;;;;7.35;4.25;;;;;;;12.45;76.21;98119.97;6099285;23;20073;-77
2022/10/30 02:36:14;;;;;;;7.63;3.38;;;;;;;12.36;75.97;98102.91;6051432;23;20099;-77
2022/10/30 02:38:42;;;;;;;4.53;3.25;;;;;;;12.42;75.75;98125.31;6075089;23;20021;-79
2022/10/30 02:41:09;;;;;;;4.13;3.13;;;;;;;12.30;75.50;98113.63;6099227;23;20073;-78
2022/10/30 02:43:36;;;;;;;5.22;3.10;;;;;;;12.30;75.46;98119.69;6098973;23;20022;-78
2022/10/30 02:46:02;;;;;;;3.90;2.85;;;;;;;12.29;75.28;98118.00;6124971;23;20519;-80
2022/10/30 02:48:32;;;;;;;5.85;3.10;;;;;;;12.21;75.32;98101.84;6075326;23;20048;-77
2022/10/30 02:51:03;;;;;;;6.63;3.33;;;;;;;12.23;75.08;98105.25;6074679;23;20018;-79
2022/10/30 02:53:29;;;;;;;3.85;2.60;;;;;;;12.21;75.07;98099.25;6075159;23;20021;-78
2022/10/30 02:56:01;;;;;;;4.82;2.85;;;;;;;12.30;74.81;98114.47;6074834;23;20018;-78
2022/10/30 02:58:30;;;;;;;5.10;2.50;;;;;;;12.27;74.68;98106.78;6098960;23;20515;-78
2022/10/30 03:00:56;;;;;;;4.03;2.50;;;;;;;12.40;74.34;98112.31;6074452;23;20080;-79
2022/10/30 03:03:22;;;;;;;3.15;2.40;;;;;;;12.34;73.92;98100.41;6075013;23;20476;-78
2022/10/30 03:05:48;;;;;;;3.50;2.40;;;;;;;12.38;73.88;98118.53;6073696;23;20094;-78
2022/10/30 03:08:15;;;;;;;3.60;2.30;;;;;;;12.31;73.79;98112.72;6075185;23;20017;-79
2022/10/30 03:10:43;;;;;;;3.88;2.30;;;;;;;12.34;73.23;98115.22;6099024;23;20486;-77
2022/10/30 03:13:09;;;;;;;3.83;2.50;;;;;;;12.32;73.15;98117.88;6075025;23;20024;-78
2022/10/30 03:15:35;;;;;;;2.80;2.13;;;;;;;12.18;72.75;98096.75;6101178;23;20022;-77
2022/10/30 03:18:01;;;;;;;3.10;2.17;;;;;;;12.15;72.70;98091.66;6098793;23;20069;-78
2022/10/30 03:20:27;;;;;;;5.38;2.00;;;;;;;12.08;72.43;98098.91;6075299;23;20415;-78
2022/10/30 03:22:54;;;;;;;2.42;1.70;;;;;;;12.03;72.30;98096.47;6124926;23;20014;-78
2022/10/30 03:25:22;;;;;;;4.63;2.72;;;;;;;12.12;72.21;98117.88;6099242;23;20018;-78
2022/10/30 03:27:53;;;;;;;3.40;1.88;;;;;;;11.92;71.76;98093.44;6099649;23;20078;-78
2022/10/30 03:30:19;;;;;;;3.85;1.85;;;;;;;11.95;71.68;98103.75;6074833;23;20021;-79
2022/10/30 03:32:47;;;;;;;4.28;2.45;;;;;;;11.93;71.48;98110.78;6124912;23;20021;-79
2022/10/30 03:35:13;;;;;;;5.95;2.03;;;;;;;11.78;71.34;98098.41;6104724;23;20033;-78
2022/10/30 03:37:39;;;;;;;3.83;1.80;;;;;;;11.70;71.22;98096.06;6076867;23;20021;-78
2022/10/30 03:40:05;;;;;;;3.05;2.10;;;;;;;11.70;71.08;98106.50;6123144;23;20028;-79
2022/10/30 03:42:32;;;;;;;2.60;2.00;;;;;;;11.68;71.15;98122.19;6098907;23;20081;-79
2022/10/30 03:44:58;;;;;;;5.43;2.38;;;;;;;11.47;70.79;98084.00;6124856;23;20348;-78
2022/10/30 03:47:24;;;;;;;5.90;2.10;;;;;;;11.60;70.76;98106.03;6098774;23;20014;-77
2022/10/30 03:49:53;;;;;;;5.45;2.10;;;;;;;11.58;70.66;98118.28;6098931;23;20024;-78
2022/10/30 03:52:20;;;;;;;3.33;2.00;;;;;;;11.42;70.65;98100.63;6098917;23;20052;-77
2022/10/30 03:54:47;;;;;;;3.03;1.70;;;;;;;11.42;70.68;98098.03;6099157;23;20101;-78
2022/10/30 03:57:15;;;;;;;3.20;2.10;;;;;;;11.52;70.77;98113.31;6098671;23;20046;-80
2022/10/30 03:59:56;;;;;;;6.05;2.90;;;;;;;11.41;70.56;98106.75;6098924;23;20366;-78
2022/10/30 04:02:47;;;;;;;3.50;1.95;;;;;;;11.44;70.43;98116.22;6124294;23;20072;-80
2022/10/30 04:05:15;;;;;;;2.95;1.70;;;;;;;11.43;70.62;98117.13;6074585;23;20104;-78
2022/10/30 04:07:42;;;;;;;2.88;1.70;;;;;;;11.43;70.66;98119.72;6098305;23;20018;-79
2022/10/30 04:10:12;;;;;;;3.33;1.50;;;;;;;11.36;69.94;98108.72;6100483;23;20021;-79
2022/10/30 04:12:38;;;;;;;1.98;1.48;;;;;;;11.36;69.78;98131.28;6101268;23;20021;-80
2022/10/30 04:15:06;;;;;;;2.75;1.50;;;;;;;11.13;69.90;98102.63;6077080;23;20018;-77
2022/10/30 04:17:33;;;;;;;3.20;1.48;;;;;;;11.37;69.50;98141.63;6077193;23;20026;-78
2022/10/30 04:20:03;;;;;;;3.10;1.60;;;;;;;11.28;69.58;98127.22;6102677;23;20452;-79
2022/10/30 04:22:31;;;;;;;2.55;1.60;;;;;;;11.37;69.37;98146.00;6129556;23;20102;-79
2022/10/30 04:24:57;;;;;;;1.95;1.33;;;;;;;11.10;69.25;98105.34;6128989;23;20514;-78
2022/10/30 04:27:23;;;;;;;3.03;1.60;;;;;;;11.20;69.01;98129.28;6076209;23;20017;-77
2022/10/30 04:29:49;;;;;;;3.20;1.45;;;;;;;11.08;68.97;98146.22;6076099;23;20022;-77
2022/10/30 04:32:16;;;;;;;6.47;1.73;;;;;;;10.89;69.52;98120.00;6099959;23;20045;-77
2022/10/30 04:34:42;;;;;;;2.80;1.40;;;;;;;11.02;69.52;98143.81;6100164;23;20049;-78
2022/10/30 04:37:08;;;;;;;4.65;1.50;;;;;;;11.01;69.16;98142.13;6052377;23;20456;-79
2022/10/30 04:39:34;;;;;;;4.30;1.50;;;;;;;11.04;69.25;98129.00;6076114;23;20021;-79
2022/10/30 04:42:10;;;;;;;2.85;1.40;;;;;;;10.98;68.65;98101.47;6054512;23;20072;-77
2022/10/30 04:45:01;;;;;;;4.55;1.40;;;;;;;11.03;69.22;98136.88;6127135;23;20100;-78
2022/10/30 04:47:29;;;;;;;3.65;1.83;;;;;;;10.93;69.09;98129.41;6107263;23;20025;-78
2022/10/30 04:49:58;;;;;;;3.35;1.27;;;;;;;10.75;68.83;98112.69;6078182;23;20021;-77
2022/10/30 04:52:24;;;;;;;2.03;1.20;;;;;;;10.64;68.89;98091.44;6100406;23;20021;-78
2022/10/30 04:54:50;;;;;;;4.28;1.17;;;;;;;10.70;68.67;98099.03;6126463;23;20022;-77
2022/10/30 04:57:19;;;;;;;2.95;1.65;;;;;;;10.94;69.06;98123.28;6076000;23;20098;-80
2022/10/30 04:59:45;;;;;;;2.90;1.23;;;;;;;11.14;68.73;98127.75;6076237;23;20412;-78
2022/10/30 05:02:11;;;;;;;2.92;1.20;;;;;;;11.19;68.37;98118.91;6100775;23;20018;-80
2022/10/30 05:04:37;;;;;;;2.08;1.17;;;;;;;11.18;68.65;98102.44;6100612;23;20416;-79
2022/10/30 05:07:04;;;;;;;1.23;1.00;;;;;;;11.33;68.08;98123.59;6076095;23;20053;-78
2022/10/30 05:09:34;;;;;;;2.70;1.40;;;;;;;11.31;67.68;98121.06;6100317;23;20096;-79
2022/10/30 05:12:00;;;;;;;2.25;1.13;;;;;;;11.12;67.81;98100.06;6126210;23;20021;-78
2022/10/30 05:14:32;;;;;;;1.75;1.15;;;;;;;11.17;67.56;98125.94;6103254;23;20066;-78
2022/10/30 05:17:00;;;;;;;3.15;1.25;;;;;;;11.00;67.44;98117.00;6105928;23;20460;-79
2022/10/30 05:19:29;;;;;;;2.25;1.15;;;;;;;11.00;67.52;98127.41;6079843;23;20060;-81
2022/10/30 05:21:59;;;;;;;1.15;0.75;;;;;;;11.03;67.63;98131.69;6126565;23;20017;-80
2022/10/30 05:24:24;;;;;;;2.28;0.90;;;;;;;11.12;67.25;98128.72;6100575;23;20018;-81
2022/10/30 05:26:54;;;;;;;2.65;1.00;;;;;;;11.71;67.50;98127.28;6104460;23;20010;-79
2022/10/30 05:34:24;;;;;;;2.28;1.08;;;;;;;10.81;66.20;97952.94;5953901;24;20025;-82
2022/10/30 05:42:47;;;;;;;1.20;0.85;;;;;;;11.68;65.63;98143.03;5877870;24;20381;-81
2022/10/30 05:45:29;;;;;;;1.85;1.20;;;;;;;11.59;65.78;98140.78;5845917;24;20018;-81
2022/10/30 05:53:42;;;;;;;2.55;1.02;;;;;;;11.67;65.21;98018.91;5851588;24;20099;-81
2022/10/30 06:04:40;;;;;;;1.20;0.90;;;;;;;14.28;60.69;98025.97;5913754;24;20029;-81
2022/10/30 06:07:11;;;;;;;2.35;1.27;;;;;;;13.95;60.06;98083.47;5902086;24;20021;-80
2022/10/30 06:09:37;;;;;;;1.92;1.10;;;;;;;13.08;60.68;98011.88;6000914;23;20024;-80
2022/10/30 06:17:03;;;;;;;3.25;1.50;;;;;;;12.73;60.07;98079.59;5867122;24;20128;-80
2022/10/30 06:19:32;;;;;;;2.42;1.00;;;;;;;12.88;60.48;98130.25;5990278;23;20027;-81
2022/10/30 06:22:27;;;;;;;2.15;1.15;;;;;;;11.91;60.52;98000.53;6110895;23;20049;-82
2022/10/30 06:25:03;;;;;;;1.38;1.00;;;;;;;12.54;60.76;98116.09;6089927;23;20021;-78
2022/10/30 06:27:45;;;;;;;3.65;1.40;;;;;;;11.49;60.76;97965.78;6097131;23;20025;-79
2022/10/30 06:30:15;;;;;;;3.40;1.02;;;;;;;12.21;61.05;98096.63;6122536;23;20024;-80
2022/10/30 06:32:41;;;;;;;2.55;1.20;;;;;;;11.48;60.98;98008.38;6110632;23;20093;-80
2022/10/30 06:35:07;;;;;;;4.43;1.40;;;;;;;12.39;61.10;98161.94;6129162;23;20018;-80
2022/10/30 06:37:33;;;;;;;2.55;1.40;;;;;;;11.88;60.83;98124.00;6103252;23;20014;-79
2022/10/30 06:40:09;;;;;;;2.53;1.20;;;;;;;11.93;61.47;98175.06;6102747;23;20021;-78
2022/10/30 06:43:19;;;;;;;1.50;0.90;;;;;;;10.80;61.90;98030.13;6022373;23;20047;-82
2022/10/30 06:46:09;;;;;;;2.97;0.90;;;;;;;10.95;62.36;98106.78;6060629;23;20021;-79
2022/10/30 06:48:59;;;;;;;4.13;0.90;;;;;;;10.25;62.98;98009.59;6100194;23;20017;-80
2022/10/30 06:51:43;;;;;;;2.70;1.07;;;;;;;11.36;62.97;98193.78;6124661;23;20046;-81
2022/10/30 06:54:15;;;;;;;2.95;1.10;;;;;;;10.74;63.79;98079.78;6075947;23;20017;-80
2022/10/30 06:56:49;;;;;;;4.10;1.10;;;;;;;11.40;63.91;98190.16;6125837;23;20018;-79
2022/10/30 06:59:44;;;;;;;3.65;1.20;;;;;;;11.36;63.77;98191.19;6078126;23;20056;-81
2022/10/30 07:02:38;;;;;;;3.65;0.98;;;;;;;10.84;64.26;98075.94;6125089;23;20097;-79
2022/10/30 07:05:08;;;;;;;3.42;1.15;;;;;;;11.25;63.62;98110.88;6051248;23;20021;-81
2022/10/30 07:07:34;;;;;;;2.13;0.80;;;;;;;11.63;64.27;98108.50;6075278;23;20014;-81
2022/10/30 07:10:04;;;;;;;1.27;0.73;;;;;;;12.75;64.07;98154.31;6045476;23;20436;-79
2022/10/30 07:13:01;;;;;;;0.80;0.70;;;;;;;13.04;61.95;98136.47;6047815;23;20045;-79
2022/10/30 07:16:09;;;;;;;1.15;0.77;;;;;;;13.03;61.31;98100.81;5980649;24;20020;-79
2022/10/30 07:18:40;;;;;;;1.85;0.70;;;;;;;13.70;60.14;98177.00;6019214;23;20029;-78
2022/10/30 07:21:08;;;;;;;2.50;0.65;;;;;;;14.34;60.23;98155.63;6082922;23;20029;-82
2022/10/30 07:23:35;;;;;;;2.22;0.73;;;;;;;17.16;62.13;98150.47;6057417;23;20053;-79
2022/10/30 07:26:19;;;;;;;1.08;0.70;;;;;;;19.58;56.49;98136.19;6107158;23;20014;-78
2022/10/30 07:28:49;;;;;;;0.90;0.70;;;;;;;21.44;54.16;98111.56;6073121;23;20053;-80
2022/10/30 07:31:38;;;;;;;1.70;0.80;;;;;;;23.80;49.34;98135.94;6039844;23;20029;-80
2022/10/30 07:34:28;;;;;;;6.45;1.20;;;;;;;24.83;42.94;98045.88;6070042;23;20029;-80
2022/10/30 07:37:13;;;;;;;1.42;0.60;;;;;;;24.98;40.37;98083.47;6029020;23;20022;-79
2022/10/30 07:39:46;;;;;;;1.20;0.82;;;;;;;25.06;37.95;98002.91;6069838;23;20023;-81
2022/10/30 07:42:19;;;;;;;0.70;0.70;;;;;;;25.76;35.12;98094.63;6024947;23;20065;-80
2022/10/30 07:45:15;;;;;;;0.65;0.63;;;;;;;26.45;33.76;98098.38;6074399;23;20025;-80
2022/10/30 07:48:11;;;;;;;1.65;1.05;;;;;;;27.48;32.60;98091.38;5995493;23;20083;-79
2022/10/30 07:50:44;;;;;;;3.10;0.88;;;;;;;27.30;29.88;98022.03;6049106;23;20025;-82
2022/10/30 07:53:11;;;;;;;3.92;0.70;;;;;;;27.96;29.58;98099.59;6021857;23;20018;-80
2022/10/30 07:55:37;;;;;;;2.30;0.90;;;;;;;28.68;29.01;98087.34;6069834;23;20018;-80
2022/10/30 07:58:12;;;;;;;1.80;1.10;;;;;;;29.13;27.70;98081.53;6048371;23;20082;-81
2022/10/30 08:01:09;;;;;;;1.88;0.80;;;;;;;28.40;27.78;98058.31;6070048;23;20396;-79
2022/10/30 08:03:35;;;;;;;2.55;0.73;;;;;;;27.09;27.83;98086.56;6070111;23;20024;-79
2022/10/30 08:06:27;;;;;;;1.45;0.80;;;;;;;25.50;27.69;98090.88;6060473;23;20022;-79
2022/10/30 08:08:55;;;;;;;1.25;0.70;;;;;;;24.17;29.08;98098.94;6045925;23;20475;-80
2022/10/30 08:11:31;;;;;;;1.00;0.80;;;;;;;22.93;29.63;98088.69;6115653;23;20025;-79
2022/10/30 08:13:59;;;;;;;0.70;0.70;;;;;;;22.56;29.62;98095.34;6076845;23;20025;-80
2022/10/30 08:16:25;;;;;;;4.30;0.80;;;;;;;21.62;30.37;98095.22;6052117;23;20021;-80
2022/10/30 08:18:51;;;;;;;0.85;0.80;;;;;;;20.85;30.98;98083.69;6052316;23;20046;-77
2022/10/30 08:21:20;;;;;;;1.73;1.17;;;;;;;20.47;31.37;98112.06;6101961;23;20084;-80
2022/10/30 08:23:55;;;;;;;4.90;0.90;;;;;;;19.96;31.46;98115.91;6080782;23;20021;-84
2022/10/30 08:26:23;;;;;;;5.38;1.88;;;;;;;19.44;31.96;98095.00;6081017;23;20065;-79
2022/10/30 08:28:52;;;;;;;1.73;0.60;;;;;;;19.07;32.38;98129.28;6102554;23;20154;-80
2022/10/30 08:31:19;;;;;;;3.25;0.68;;;;;;;17.95;33.49;98089.38;6127441;23;20024;-82
2022/10/30 08:34:10;;;;;;;2.78;0.63;;;;;;;17.40;34.37;98123.56;6114481;23;20018;-79
2022/10/30 08:36:42;;;;;;;1.45;1.20;;;;;;;16.61;34.46;98070.63;6101242;23;20066;-82
2022/10/30 08:39:12;;;;;;;2.25;0.73;;;;;;;16.18;35.35;98102.94;6102190;23;20032;-80
2022/10/30 08:41:48;;;;;;;0.73;0.60;;;;;;;15.44;36.39;98058.19;6102457;23;20021;-79
2022/10/30 08:44:21;;;;;;;1.08;0.70;;;;;;;15.08;36.83;98068.94;6078749;23;20062;-80
2022/10/30 08:47:22;;;;;;;2.40;1.58;;;;;;;14.99;37.38;98092.06;6025245;23;20039;-80
2022/10/30 08:49:52;;;;;;;4.28;1.70;;;;;;;14.79;37.97;98102.78;6111688;23;20053;-80
2022/10/30 08:52:23;;;;;;;3.15;1.25;;;;;;;15.06;38.28;98131.88;6105780;23;20022;-81
2022/10/30 08:54:54;;;;;;;6.53;5.25;;;;;;;14.76;38.41;98104.63;6106460;23;20022;-82
2022/10/30 08:57:23;;;;;;;1.98;1.00;;;;;;;14.39;39.10;98097.81;6080892;23;20097;-81
2022/10/30 08:59:50;;;;;;;2.72;0.80;;;;;;;14.13;39.14;98089.53;6080732;23;20372;-81
2022/10/30 09:02:45;;;;;;;2.78;1.10;;;;;;;14.52;39.33;98108.50;6130354;23;20056;-82
2022/10/30 09:05:30;;;;;;;1.85;0.88;;;;;;;14.81;39.66;98103.53;6108346;23;20022;-81
2022/10/30 09:08:15;;;;;;;1.85;0.70;;;;;;;15.81;39.34;98094.53;6102450;23;20025;-80
2022/10/30 09:11:04;;;;;;;4.00;0.82;;;;;;;17.73;38.35;98101.31;6090120;23;20464;-81
2022/10/30 09:13:31;;;;;;;1.40;0.60;;;;;;;18.16;36.38;98104.72;6107414;23;20022;-81
2022/10/30 09:16:13;;;;;;;0.65;0.65;;;;;;;17.70;36.16;98088.38;6107303;23;20018;-83
2022/10/30 09:18:54;;;;;;;2.33;0.60;;;;;;;16.97;36.44;98000.16;6057523;23;20053;-81
2022/10/30 09:21:33;;;;;;;0.77;0.50;;;;;;;17.13;36.12;98029.78;6102147;23;20021;-80
2022/10/30 09:24:08;;;;;;;1.63;0.77;;;;;;;17.26;36.70;98082.41;6100935;23;20160;-80
2022/10/30 09:26:41;;;;;;;1.48;0.82;;;;;;;15.81;36.50;97981.78;6079426;23;20104;-81
2022/10/30 09:29:43;;;;;;;1.10;1.00;;;;;;;14.94;37.61;97985.88;6079319;23;20029;-80
2022/10/30 09:32:31;;;;;;;4.72;1.00;;;;;;;14.60;38.66;98075.75;6101643;23;20056;-80
2022/10/30 09:38:29;;;;;;;0.57;0.43;;;;;;;13.48;40.03;98019.53;6078970;23;20024;-79
2022/10/30 09:41:16;;;;;;;1.77;0.70;;;;;;;13.73;40.13;98079.31;6079224;23;20017;-82
2022/10/30 09:44:19;;;;;;;1.80;0.63;;;;;;;13.39;40.62;98086.97;6082906;23;20021;-78
2022/10/30 09:47:03;;;;;;;1.65;0.70;;;;;;;13.24;40.84;98092.94;6087895;23;20018;-78
2022/10/30 09:49:53;;;;;;;0.73;0.73;;;;;;;11.72;41.28;97884.06;6108042;23;20482;-81
2022/10/30 09:52:47;;;;;;;1.80;0.60;;;;;;;12.83;41.76;98078.25;6055617;23;20105;-79
2022/10/30 09:55:16;;;;;;;2.88;0.60;;;;;;;12.68;42.22;98086.78;6057524;23;20101;-80
2022/10/30 09:57:42;;;;;;;1.13;0.77;;;;;;;12.64;42.47;98084.31;6107235;23;20049;-78
2022/10/30 10:00:18;;;;;;;1.70;0.70;;;;;;;12.47;42.62;98061.59;6054634;23;20026;-79
2022/10/30 10:02:57;;;;;;;1.20;0.95;;;;;;;12.60;42.41;98090.59;6099619;23;20018;-77
2022/10/30 10:05:48;;;;;;;1.45;0.82;;;;;;;12.56;42.89;98094.25;6100884;23;20104;-81
2022/10/30 10:08:49;;;;;;;3.15;0.90;;;;;;;12.42;43.08;98075.75;6106067;23;20033;-80
2022/10/30 10:11:45;;;;;;;2.40;0.80;;;;;;;11.99;43.34;98021.94;6104357;23;20526;-79
2022/10/30 10:14:40;;;;;;;1.73;0.70;;;;;;;11.55;43.58;97952.53;6081581;23;20025;-79
2022/10/30 10:17:13;;;;;;;2.03;0.82;;;;;;;11.99;43.58;98044.53;6091178;23;20032;-77
2022/10/30 10:19:54;;;;;;;4.10;0.80;;;;;;;11.90;44.14;98057.03;6100215;23;20018;-79
2022/10/30 10:22:25;;;;;;;1.65;1.00;;;;;;;11.92;44.42;98059.56;6099800;23;20363;-80
2022/10/30 10:24:55;;;;;;;4.65;1.33;;;;;;;11.60;44.42;98017.44;6100428;23;20088;-80
2022/10/30 10:27:49;;;;;;;4.20;1.90;;;;;;;12.05;45.30;98080.78;6075682;23;20028;-81
2022/10/30 10:30:20;;;;;;;4.50;1.20;;;;;;;12.23;44.95;98070.47;6126421;23;20028;-79
2022/10/30 10:33:11;;;;;;;1.65;0.70;;;;;;;12.28;44.55;98073.75;6099596;23;20052;-79
2022/10/30 10:35:47;;;;;;;2.42;1.10;;;;;;;12.53;44.30;98064.84;6079015;23;20033;-78
2022/10/30 10:38:30;;;;;;;4.20;0.70;;;;;;;12.48;44.00;98060.66;6106324;23;20121;-80
2022/10/30 10:41:14;;;;;;;2.33;0.80;;;;;;;12.52;43.72;98076.19;6134881;23;20029;-80
2022/10/30 10:44:14;;;;;;;1.92;0.63;;;;;;;12.47;43.27;98074.63;6132706;23;20018;-81
2022/10/30 10:47:24;;;;;;;5.45;0.73;;;;;;;12.45;42.81;98075.63;6128192;23;20033;-81
2022/10/30 10:49:53;;;;;;;1.65;0.50;;;;;;;12.29;42.70;98072.81;6076451;23;20024;-82
2022/10/30 10:52:48;;;;;;;4.57;0.80;;;;;;;12.11;42.20;98084.88;6076617;23;20017;-79
2022/10/30 10:55:32;;;;;;;4.00;0.93;;;;;;;10.44;41.79;97876.34;6074591;23;20081;-81
2022/10/30 10:58:10;;;;;;;1.10;0.57;;;;;;;11.63;40.96;98082.44;6127868;23;20017;-81
2022/10/30 11:00:48;;;;;;;0.65;0.47;;;;;;;11.44;41.25;98098.81;6072595;23;20018;-82
2022/10/30 11:03:33;;;;;;;2.22;1.25;;;;;;;10.90;41.37;98022.81;6123397;23;20478;-79
2022/10/30 11:06:26;;;;;;;2.15;0.70;;;;;;;11.32;41.16;98081.09;6076283;23;20018;-80
2022/10/30 11:09:15;;;;;;;0.85;0.68;;;;;;;11.28;41.13;98085.56;6104368;23;21255;-79
2022/10/30 11:11:49;;;;;;;2.00;0.70;;;;;;;10.18;41.48;97909.34;6101833;23;20025;-81
2022/10/30 11:14:30;;;;;;;3.35;0.80;;;;;;;9.83;41.42;97838.75;6102077;23;20029;-83
2022/10/30 11:17:41;;;;;;;2.47;0.70;;;;;;;10.29;41.44;97899.41;6126816;23;20029;-79
2022/10/30 11:20:35;;;;;;;2.15;0.55;;;;;;;10.01;42.00;97871.84;5980921;24;20031;-81
2022/10/30 11:23:37;;;;;;;9.95;1.58;;;;;;;11.14;42.28;98080.88;5983432;24;20120;-83
2022/10/30 11:26:16;;;;;;;3.97;1.50;;;;;;;10.87;42.14;98102.75;6079148;23;20018;-81
2022/10/30 11:28:58;;;;;;;2.10;1.10;;;;;;;10.20;43.18;98046.16;6127051;23;20018;-82
2022/10/30 11:31:33;;;;;;;1.95;1.02;;;;;;;9.88;44.90;98123.44;6079443;23;20022;-79
2022/10/30 11:34:18;;;;;;;2.70;0.82;;;;;;;9.56;48.03;98106.31;6128287;23;20065;-79
2022/10/30 11:36:51;;;;;;;2.25;0.95;;;;;;;8.93;49.29;98020.88;6054889;23;20014;-80
2022/10/30 11:39:29;;;;;;;2.40;0.90;;;;;;;9.38;50.68;98113.78;6101527;23;20032;-81
2022/10/30 11:42:14;;;;;;;2.75;0.75;;;;;;;9.33;51.18;98131.22;6125908;23;20018;-80
2022/10/30 11:45:04;;;;;;;0.70;0.60;;;;;;;9.16;51.57;98147.31;6077661;23;20018;-81
2022/10/30 11:47:35;;;;;;;1.92;0.80;;;;;;;7.37;51.78;97910.34;6081488;23;20013;-82
2022/10/30 11:50:05;;;;;;;1.15;0.80;;;;;;;7.30;52.77;97937.25;6053618;23;20040;-80
2022/10/30 11:52:39;;;;;;;1.50;0.70;;;;;;;8.02;53.69;98042.41;6101920;23;20014;-81
2022/10/30 11:55:23;;;;;;;1.05;0.80;;;;;;;8.42;53.65;98127.72;6101457;23;20022;-79
2022/10/30 11:57:54;;;;;;;5.38;0.73;;;;;;;8.46;54.09;98144.03;6102482;23;20037;-82
2022/10/30 12:00:24;;;;;;;1.30;0.63;;;;;;;8.57;54.52;98133.41;6083669;23;20033;-83
2022/10/30 12:02:55;;;;;;;0.98;0.70;;;;;;;8.42;54.24;98108.72;6082677;23;20018;-80
2022/10/30 12:05:24;;;;;;;0.80;0.70;;;;;;;8.52;54.53;98162.06;6055408;23;20392;-83
2022/10/30 12:08:13;;;;;;;1.75;0.90;;;;;;;8.03;53.93;98103.69;6103019;23;20024;-81
2022/10/30 12:10:43;;;;;;;2.88;1.10;;;;;;;8.14;54.43;98135.38;6051291;23;20050;-81
2022/10/30 12:13:17;;;;;;;0.60;0.60;;;;;;;7.17;54.30;98019.50;6090042;23;20499;-82
2022/10/30 12:15:47;;;;;;;0.68;0.50;;;;;;;7.68;54.04;98127.84;6116565;23;20029;-81
2022/10/30 12:18:23;;;;;;;2.45;0.70;;;;;;;7.72;54.02;98154.50;6030041;23;20022;-83
2022/10/30 12:20:53;;;;;;;1.80;0.68;;;;;;;7.65;53.74;98138.28;6070994;23;20551;-80
2022/10/30 12:23:25;;;;;;;0.55;0.50;;;;;;;7.42;53.46;98114.66;6100188;23;20018;-81
2022/10/30 12:25:55;;;;;;;0.80;0.60;;;;;;;7.57;53.30;98152.28;6048953;23;20472;-80
2022/10/30 12:28:33;;;;;;;1.42;0.77;;;;;;;7.45;53.18;98133.53;6047031;23;20066;-83
2022/10/30 12:31:16;;;;;;;1.13;0.70;;;;;;;7.55;52.88;98139.34;6048674;23;20018;-81
2022/10/30 12:34:00;;;;;;;0.75;0.65;;;;;;;7.47;52.70;98147.31;6102884;23;20046;-81
2022/10/30 12:36:35;;;;;;;3.08;0.60;;;;;;;6.75;52.71;98025.59;6099687;23;20018;-80
2022/10/30 12:39:09;;;;;;;1.20;0.75;;;;;;;6.98;52.46;98089.75;6072277;23;20028;-79
2022/10/30 12:41:44;;;;;;;2.35;0.68;;;;;;;6.07;52.29;97939.19;6098105;23;20022;-84
2022/10/30 12:44:20;;;;;;;1.02;0.77;;;;;;;6.91;52.24;98073.50;6072671;23;20022;-81